createdAt,value
2019-04-07T13:22:53.140Z,33.30
2019-04-07T13:26:03.821Z,33.70
2019-04-07T13:29:11.849Z,35.10
2019-04-07T13:32:20.654Z,36.10
2019-04-07T13:35:32.010Z,33.70
2019-04-07T13:38:37.154Z,34.10
2019-04-07T13:41:45.859Z,34.60
2019-04-07T13:45:04.497Z,34.60
2019-04-07T13:48:25.936Z,35.00
2019-04-07T13:51:36.709Z,34.60
2019-04-07T13:54:42.278Z,34.30
2019-04-07T13:57:48.270Z,34.50
2019-04-07T14:00:56.314Z,36.40
2019-04-07T14:04:05.606Z,37.80
2019-04-07T14:07:11.639Z,37.70
2019-04-07T14:10:17.115Z,38.80
2019-04-07T14:13:40.675Z,35.80
2019-04-07T14:16:48.687Z,36.70
2019-04-07T14:20:10.356Z,36.30
2019-04-07T14:23:18.657Z,40.50
2019-04-07T14:26:23.623Z,41.10
2019-04-07T14:29:29.569Z,42.50
2019-04-07T14:32:41.592Z,42.90
2019-04-07T14:35:47.703Z,43.40
2019-04-07T14:38:53.190Z,44.50
2019-04-07T14:42:04.762Z,38.80
2019-04-07T14:45:05.615Z,36.40
2019-04-07T14:48:11.368Z,35.50
2019-04-07T14:51:17.527Z,34.10
2019-04-07T14:54:27.023Z,32.40
2019-04-07T14:57:41.512Z,32.10
2019-04-07T15:00:57.199Z,32.60
2019-04-07T15:04:02.229Z,32.50
2019-04-07T15:07:09.172Z,32.40
2019-04-07T15:10:16.863Z,31.80
2019-04-07T15:13:23.938Z,32.60
2019-04-07T15:16:27.385Z,30.80
2019-04-07T15:19:31.099Z,31.80
2019-04-07T15:22:34.608Z,32.20
2019-04-07T15:25:42.804Z,31.60
2019-04-07T15:28:44.632Z,31.60
2019-04-07T15:31:50.787Z,31.70
2019-04-07T15:34:54.590Z,33.70
2019-04-07T15:37:59.080Z,31.90
2019-04-07T15:41:07.716Z,30.20
2019-04-07T15:44:10.058Z,30.90
2019-04-07T15:47:13.177Z,32.10
2019-04-07T15:50:16.792Z,34.10
2019-04-07T15:53:20.933Z,34.70
2019-04-07T15:56:24.570Z,36.60
2019-04-07T15:59:29.748Z,37.90
2019-04-07T16:02:34.539Z,38.70
2019-04-07T16:05:42.424Z,39.30
2019-04-07T16:08:43.169Z,38.40
2019-04-07T16:11:49.232Z,37.90
2019-04-07T16:14:51.757Z,37.50
2019-04-07T16:17:55.568Z,38.20
2019-04-07T16:21:00.691Z,36.30
2019-04-07T16:24:06.190Z,34.70
2019-04-07T16:27:10.883Z,35.00
2019-04-07T16:30:16.425Z,37.60
2019-04-07T16:33:20.522Z,39.10
2019-04-07T16:36:25.543Z,42.20
2019-04-07T16:39:34.121Z,43.40
2019-04-07T16:42:36.111Z,45.40
2019-04-07T16:45:44.167Z,48.10
2019-04-07T16:48:46.400Z,49.30
2019-04-07T16:51:49.837Z,51.80
2019-04-07T16:54:53.447Z,53.20
2019-04-07T16:57:59.423Z,54.70
2019-04-07T17:01:02.046Z,55.50
2019-04-07T17:04:06.318Z,56.70
2019-04-07T17:07:14.181Z,57.70
2019-04-07T17:10:15.134Z,57.90
2019-04-07T17:13:28.038Z,58.70
2019-04-07T17:16:25.028Z,60.00
2019-04-07T17:19:28.553Z,61.70
2019-04-07T17:22:32.597Z,65.20
2019-04-07T17:25:36.306Z,67.50
2019-04-07T17:28:44.600Z,68.60
2019-04-07T17:31:45.620Z,69.40
2019-04-07T17:34:50.820Z,71.00
2019-04-07T17:37:59.808Z,72.20
2019-04-07T17:41:01.334Z,72.40
2019-04-07T17:44:13.220Z,73.40
2019-04-07T17:47:15.849Z,74.30
2019-04-07T17:50:23.429Z,74.70
2019-04-07T17:53:38.381Z,74.40
2019-04-07T17:56:43.496Z,74.60
2019-04-07T17:59:49.392Z,75.10
2019-04-07T18:03:05.283Z,75.90
2019-04-07T18:06:19.563Z,76.60
2019-04-07T18:09:44.966Z,77.40
2019-04-07T18:12:54.087Z,78.80
2019-04-07T18:15:59.881Z,79.00
2019-04-07T18:19:05.596Z,79.40
2019-04-07T18:22:27.475Z,79.40
2019-04-07T18:25:50.553Z,80.00
2019-04-07T18:28:59.620Z,79.30
2019-04-07T18:32:16.539Z,80.80
2019-04-07T18:35:43.252Z,81.00
2019-04-07T18:38:54.948Z,81.70
2019-04-07T18:42:02.053Z,81.40
2019-04-07T18:45:25.508Z,81.90
2019-04-07T18:48:34.731Z,82.80
2019-04-07T18:51:48.356Z,84.90
2019-04-07T18:58:53.449Z,84.00
2019-04-07T19:04:01.280Z,85.30
2019-04-07T19:09:28.311Z,86.00
2019-04-07T19:14:44.625Z,85.90
2019-04-07T19:19:49.391Z,87.10
2019-04-07T19:24:58.157Z,87.50
2019-04-07T19:30:19.426Z,88.00
2019-04-07T19:35:40.681Z,89.70
2019-04-07T19:40:53.214Z,90.10
2019-04-07T19:46:04.802Z,90.10
2019-04-07T19:51:17.731Z,90.20
2019-04-07T19:56:40.075Z,90.20
2019-04-07T20:01:46.174Z,90.30
2019-04-07T20:06:59.543Z,90.00
2019-04-07T20:12:16.258Z,90.20
2019-04-07T20:17:34.439Z,91.10
2019-04-07T20:22:40.033Z,91.70
2019-04-07T20:28:02.288Z,91.30
2019-04-07T20:33:11.780Z,92.10
2019-04-07T20:38:35.847Z,91.30
2019-04-07T20:43:39.381Z,92.00
2019-04-07T20:48:43.498Z,91.50
2019-04-07T20:55:42.844Z,91.50
2019-04-07T20:59:53.080Z,92.10
2019-04-07T21:03:55.654Z,92.70
2019-04-07T21:08:00.728Z,93.00
2019-04-07T21:12:14.863Z,93.10
2019-04-07T21:16:23.496Z,92.40
2019-04-07T21:24:58.687Z,92.10
2019-04-07T21:29:02.407Z,92.80
2019-04-07T21:33:08.963Z,93.70
2019-04-07T21:37:14.791Z,93.90
2019-04-07T21:41:17.391Z,93.20
2019-04-07T21:45:35.378Z,92.80
2019-04-07T21:49:37.199Z,92.90
2019-04-07T21:53:43.163Z,93.70
2019-04-07T21:57:59.795Z,94.60
2019-04-07T22:02:13.369Z,94.90
2019-04-07T22:06:26.547Z,94.60
2019-04-07T22:10:27.566Z,94.80
2019-04-07T22:14:28.888Z,94.60
2019-04-07T22:18:30.369Z,95.20
2019-04-07T22:22:33.220Z,94.80
2019-04-07T22:26:35.310Z,94.80
2019-04-07T22:30:39.919Z,95.10
2019-04-07T22:34:39.970Z,95.40
2019-04-07T22:38:41.239Z,94.90
2019-04-07T22:42:45.490Z,94.60
2019-04-07T22:46:48.042Z,94.90
2019-04-07T22:50:49.606Z,95.40
2019-04-07T22:54:51.918Z,95.40
2019-04-07T22:58:54.112Z,95.50
2019-04-07T23:02:56.007Z,95.70
2019-04-07T23:06:57.280Z,95.70
2019-04-07T23:10:58.739Z,95.50
2019-04-07T23:14:59.990Z,95.60
2019-04-07T23:19:02.627Z,95.20
2019-04-07T23:23:04.728Z,95.20
2019-04-07T23:27:06.248Z,95.10
2019-04-07T23:31:07.574Z,95.60
2019-04-07T23:35:09.157Z,95.50
2019-04-07T23:39:11.115Z,95.40
2019-04-07T23:43:13.191Z,95.30
2019-04-07T23:47:15.271Z,95.90
2019-04-07T23:51:17.156Z,96.60
2019-04-07T23:55:18.414Z,96.50
2019-04-07T23:59:20.760Z,96.30
